createdAt,value
2023-05-08T00:04:02.237Z,20.96
2023-05-08T00:09:04.796Z,20.98
2023-05-08T00:14:06.957Z,20.99
2023-05-08T00:19:09.086Z,20.95
2023-05-08T00:24:11.238Z,20.96
2023-05-08T00:29:13.347Z,20.99
2023-05-08T00:34:15.624Z,20.98
2023-05-08T00:39:17.770Z,20.97
2023-05-08T00:44:19.950Z,20.95
2023-05-08T00:49:22.755Z,20.98
2023-05-08T00:54:26.576Z,20.96
2023-05-08T00:59:28.834Z,20.94
2023-05-08T01:04:32.101Z,20.97
2023-05-08T01:09:34.399Z,20.98
2023-05-08T01:15:11.219Z,20.96
2023-05-08T01:20:36.529Z,20.95
2023-05-08T01:25:44.450Z,20.95
2023-05-08T01:31:23.774Z,20.95
2023-05-08T01:36:37.473Z,20.97
2023-05-08T01:41:43.692Z,20.98
2023-05-08T01:46:49.397Z,20.95
2023-05-08T01:52:01.453Z,20.95
2023-05-08T01:57:04.816Z,20.98
2023-05-08T02:02:08.867Z,20.97
2023-05-08T02:07:11.504Z,20.95
2023-05-08T02:12:16.693Z,20.98
2023-05-08T02:17:21.133Z,20.97
2023-05-08T02:22:24.577Z,20.94
2023-05-08T02:27:29.408Z,20.95
2023-05-08T02:32:33.282Z,20.96
2023-05-08T02:37:35.770Z,20.95
2023-05-08T02:42:38.256Z,20.94
2023-05-08T02:48:03.205Z,20.98
2023-05-08T02:53:11.679Z,20.99
2023-05-08T02:58:32.177Z,20.95
2023-05-08T03:03:41.470Z,20.94
2023-05-08T03:08:47.356Z,21.00
2023-05-08T03:13:52.648Z,20.98
2023-05-08T03:19:01.840Z,20.95
2023-05-08T03:24:05.714Z,20.93
2023-05-08T03:29:08.532Z,20.95
2023-05-08T03:34:13.172Z,20.94
2023-05-08T03:39:15.958Z,20.94
2023-05-08T03:44:19.321Z,20.94
2023-05-08T03:49:23.921Z,20.95
2023-05-08T03:54:28.710Z,20.95
2023-05-08T03:59:42.660Z,20.95
2023-05-08T04:04:47.781Z,20.96
2023-05-08T04:10:00.575Z,20.95
2023-05-08T04:15:20.832Z,20.92
2023-05-08T04:20:27.025Z,20.98
2023-05-08T04:25:31.079Z,20.97
2023-05-08T04:30:33.998Z,20.96
2023-05-08T04:35:36.423Z,20.93
2023-05-08T04:40:38.827Z,20.94
2023-05-08T04:45:41.842Z,20.96
2023-05-08T04:50:44.012Z,20.96
2023-05-08T04:55:46.252Z,20.94
2023-05-08T05:00:48.926Z,21.00
2023-05-08T05:05:58.179Z,20.97
2023-05-08T05:11:00.427Z,20.96
2023-05-08T05:16:03.363Z,20.97
2023-05-08T05:21:05.576Z,20.98
2023-05-08T05:26:08.244Z,20.97
2023-05-08T05:31:10.926Z,20.96
2023-05-08T05:36:13.279Z,20.94
2023-05-08T05:41:15.621Z,20.98
2023-05-08T05:46:19.001Z,20.97
2023-05-08T05:51:21.310Z,20.97
2023-05-08T05:56:23.910Z,20.95
2023-05-08T06:01:26.418Z,20.99
2023-05-08T06:06:28.652Z,20.95
2023-05-08T06:11:31.210Z,20.92
2023-05-08T06:16:33.547Z,20.94
2023-05-08T06:21:35.535Z,20.98
2023-05-08T06:26:37.577Z,20.93
2023-05-08T06:31:39.677Z,20.92
2023-05-08T06:36:41.714Z,20.96
2023-05-08T06:41:44.545Z,20.95
2023-05-08T06:46:47.406Z,20.92
2023-05-08T06:51:49.625Z,20.92
2023-05-08T06:56:54.524Z,20.95
2023-05-08T07:01:56.650Z,20.96
2023-05-08T07:06:58.939Z,20.91
2023-05-08T07:12:01.130Z,20.91
2023-05-08T07:17:07.102Z,20.95
2023-05-08T07:22:09.181Z,20.92
2023-05-08T07:27:11.253Z,20.92
2023-05-08T07:32:13.507Z,20.92
2023-05-08T07:37:15.666Z,20.94
2023-05-08T07:42:18.536Z,20.91
2023-05-08T07:47:20.609Z,20.89
2023-05-08T07:52:23.399Z,20.95
2023-05-08T07:57:25.560Z,20.93
2023-05-08T08:02:27.722Z,20.91
2023-05-08T08:07:30.008Z,20.91
2023-05-08T08:12:32.228Z,20.91
2023-05-08T08:17:34.338Z,20.90
2023-05-08T08:22:37.817Z,20.92
2023-05-08T08:27:40.256Z,20.92
2023-05-08T08:32:42.436Z,20.90
2023-05-08T08:37:44.822Z,20.90
2023-05-08T08:42:47.403Z,20.93
2023-05-08T08:47:53.462Z,20.92
2023-05-08T08:53:10.652Z,20.89
2023-05-08T08:58:23.132Z,20.89
2023-05-08T09:03:25.494Z,20.95
2023-05-08T09:08:28.206Z,20.91
2023-05-08T09:13:30.641Z,20.89
2023-05-08T09:18:32.761Z,20.90
2023-05-08T09:23:38.001Z,20.92
2023-05-08T09:28:40.080Z,20.85
2023-05-08T09:33:46.146Z,20.90
2023-05-08T09:38:48.267Z,20.94
2023-05-08T09:44:04.756Z,20.92
2023-05-08T09:49:07.104Z,20.90
2023-05-08T09:54:18.172Z,20.90
2023-05-08T09:59:26.897Z,20.89
2023-05-08T10:04:33.903Z,20.88
2023-05-08T10:09:49.892Z,20.90
2023-05-08T10:14:52.901Z,20.95
2023-05-08T10:20:01.527Z,20.91
2023-05-08T10:25:08.178Z,20.90
2023-05-08T10:30:13.656Z,20.93
2023-05-08T10:35:16.136Z,20.91
2023-05-08T10:40:21.887Z,20.91
2023-05-08T10:45:24.607Z,20.93
2023-05-08T10:50:53.668Z,20.93
2023-05-08T10:55:56.066Z,20.92
2023-05-08T11:00:59.852Z,20.92
2023-05-08T11:06:02.167Z,20.94
2023-05-08T11:11:15.157Z,20.92
2023-05-08T11:16:17.367Z,20.91
2023-05-08T11:21:24.118Z,20.93
2023-05-08T11:26:42.497Z,20.92
2023-05-08T11:31:51.856Z,20.91
2023-05-08T11:37:04.778Z,20.92
2023-05-08T11:42:24.982Z,20.93
2023-05-08T11:47:36.947Z,20.93
2023-05-08T11:52:40.536Z,20.94
2023-05-08T11:57:42.642Z,20.93
2023-05-08T12:02:47.634Z,20.94
2023-05-08T12:07:49.684Z,20.93
2023-05-08T12:12:51.906Z,20.93
2023-05-08T12:18:05.614Z,20.92
2023-05-08T12:23:09.029Z,20.94
2023-05-08T12:28:11.485Z,20.98
2023-05-08T12:33:14.643Z,20.98
2023-05-08T12:38:16.812Z,20.95
2023-05-08T12:43:19.407Z,20.96
2023-05-08T12:48:21.570Z,20.96
2023-05-08T12:53:23.770Z,20.95
2023-05-08T12:58:28.012Z,20.97
2023-05-08T13:03:30.809Z,20.98
2023-05-08T13:08:36.283Z,20.98
2023-05-08T13:13:38.451Z,20.98
2023-05-08T13:18:40.668Z,20.99
2023-05-08T13:23:43.562Z,21.01
2023-05-08T13:28:45.673Z,20.98
2023-05-08T13:33:47.842Z,20.97
2023-05-08T13:38:51.567Z,20.97
2023-05-08T13:43:53.817Z,20.99
2023-05-08T13:48:56.053Z,21.01
2023-05-08T13:53:58.234Z,21.02
2023-05-08T13:59:00.383Z,20.99
2023-05-08T14:04:02.843Z,21.00
2023-05-08T14:09:05.150Z,21.00
2023-05-08T14:14:07.529Z,21.02
2023-05-08T14:19:09.755Z,21.02
2023-05-08T14:24:11.978Z,21.02
2023-05-08T14:29:14.275Z,21.02
2023-05-08T14:34:16.314Z,21.02
2023-05-08T14:39:18.524Z,21.04
2023-05-08T14:44:20.732Z,21.02
2023-05-08T14:49:36.603Z,21.03
2023-05-08T14:54:40.300Z,21.05
2023-05-08T15:05:10.780Z,21.05
2023-05-08T15:10:16.119Z,21.06
2023-05-08T15:15:18.319Z,21.07
2023-05-08T15:20:21.392Z,21.05
2023-05-08T15:25:23.607Z,21.04
2023-05-08T15:30:25.920Z,21.05
2023-05-08T15:35:28.036Z,21.05
2023-05-08T15:40:30.112Z,21.05
2023-05-08T15:45:32.291Z,21.09
2023-05-08T15:50:34.443Z,21.04
2023-05-08T15:55:36.735Z,21.08
2023-05-08T16:00:44.802Z,21.12
2023-05-08T16:05:47.539Z,21.11
2023-05-08T16:10:49.720Z,21.09
2023-05-08T16:15:51.798Z,21.10
2023-05-08T16:20:53.919Z,21.11
2023-05-08T16:25:55.985Z,21.12
2023-05-08T16:30:58.098Z,21.11
2023-05-08T16:36:00.249Z,21.17
2023-05-08T16:41:06.067Z,21.14
2023-05-08T16:46:08.396Z,21.11
2023-05-08T16:51:10.593Z,21.16
2023-05-08T16:56:12.712Z,21.18
2023-05-08T17:01:15.222Z,21.14
2023-05-08T17:06:17.348Z,21.17
2023-05-08T17:11:19.426Z,21.13
2023-05-08T17:16:21.557Z,21.17
2023-05-08T17:21:23.660Z,21.14
2023-05-08T17:26:25.727Z,21.18
2023-05-08T17:31:27.996Z,21.17
2023-05-08T17:36:30.103Z,21.14
2023-05-08T17:41:32.357Z,21.15
2023-05-08T17:46:34.479Z,21.17
2023-05-08T17:51:36.557Z,21.15
2023-05-08T17:56:38.657Z,21.13
2023-05-08T18:01:40.860Z,21.17
2023-05-08T18:06:43.752Z,21.16
2023-05-08T18:11:45.776Z,21.16
2023-05-08T18:16:47.776Z,21.19
2023-05-08T18:21:49.861Z,21.19
2023-05-08T18:26:52.814Z,21.11
2023-05-08T18:31:55.025Z,21.20
2023-05-08T18:36:58.144Z,21.21
2023-05-08T18:42:00.358Z,21.19
2023-05-08T18:47:02.493Z,21.16
2023-05-08T18:52:04.688Z,21.19
2023-05-08T18:57:06.850Z,21.18
2023-05-08T19:02:08.985Z,21.16
2023-05-08T19:07:11.050Z,21.13
2023-05-08T19:12:13.161Z,21.16
2023-05-08T19:17:15.390Z,21.10
2023-05-08T19:22:17.739Z,21.18
2023-05-08T19:27:19.838Z,21.18
2023-05-08T19:32:21.934Z,21.15
2023-05-08T19:37:24.861Z,21.16
2023-05-08T19:42:27.150Z,21.16
2023-05-08T19:47:29.374Z,21.17
2023-05-08T19:52:31.423Z,21.15
2023-05-08T19:57:33.587Z,21.14
2023-05-08T20:02:35.721Z,21.14
2023-05-08T20:07:37.802Z,21.15
2023-05-08T20:12:39.949Z,21.16
2023-05-08T20:17:42.145Z,21.14
2023-05-08T20:22:44.284Z,21.14
2023-05-08T20:27:46.244Z,21.16
2023-05-08T20:32:48.403Z,21.18
2023-05-08T20:37:50.584Z,21.16
2023-05-08T20:42:52.624Z,21.16
2023-05-08T20:47:54.702Z,21.16
2023-05-08T20:52:56.942Z,21.16
2023-05-08T20:57:59.633Z,21.19
2023-05-08T21:03:02.539Z,21.19
2023-05-08T21:08:06.376Z,21.10
2023-05-08T21:13:08.513Z,21.18
2023-05-08T21:18:12.134Z,21.17
2023-05-08T21:23:14.058Z,21.13
2023-05-08T21:28:16.543Z,21.13
2023-05-08T21:33:18.573Z,21.17
2023-05-08T21:38:20.628Z,21.16
2023-05-08T21:43:22.741Z,21.15
2023-05-08T21:48:25.213Z,21.16
2023-05-08T21:53:27.559Z,21.19
2023-05-08T21:58:29.884Z,21.14
2023-05-08T22:03:32.125Z,21.14
2023-05-08T22:08:34.345Z,21.16
2023-05-08T22:13:36.803Z,21.16
2023-05-08T22:18:38.927Z,21.14
2023-05-08T22:23:40.980Z,21.17
2023-05-08T22:28:43.066Z,21.19
2023-05-08T22:33:45.284Z,21.16
2023-05-08T22:38:47.372Z,21.16
2023-05-08T22:43:49.550Z,21.14
2023-05-08T22:48:54.887Z,21.14
2023-05-08T22:53:57.248Z,21.15
2023-05-08T22:58:59.341Z,21.17
2023-05-08T23:04:01.484Z,21.15
2023-05-08T23:09:04.516Z,21.14
2023-05-08T23:14:06.627Z,21.15
2023-05-08T23:19:10.153Z,21.16
2023-05-08T23:24:12.281Z,21.14
2023-05-08T23:29:14.416Z,21.15
2023-05-08T23:34:16.460Z,21.13
2023-05-08T23:39:18.863Z,21.14
2023-05-08T23:44:21.264Z,21.16
2023-05-08T23:49:23.307Z,21.18
2023-05-08T23:54:25.838Z,21.14
2023-05-08T23:59:28.074Z,21.14
